sensor_id;sensor_type;location;lat;lon;timestamp;pressure;altitude;pressure_sealevel;temperature;humidity
40994;BME280;26722;43.212;27.932;2023-08-20T00:00:10;54883.84;;;-146.72;52.73
40994;BME280;26722;43.212;27.932;2023-08-20T00:02:37;54885.97;;;-146.72;52.35
40994;BME280;26722;43.212;27.932;2023-08-20T00:05:03;54892.31;;;-146.72;52.43
40994;BME280;26722;43.212;27.932;2023-08-20T00:07:30;54888.09;;;-146.72;52.90
40994;BME280;26722;43.212;27.932;2023-08-20T00:09:56;54892.31;;;-146.72;51.94
40994;BME280;26722;43.212;27.932;2023-08-20T00:12:22;54896.53;;;-146.72;52.47
40994;BME280;26722;43.212;27.932;2023-08-20T00:14:56;54890.19;;;-146.72;52.11
40994;BME280;26722;43.212;27.932;2023-08-20T00:17:24;54894.41;;;-146.72;52.76
40994;BME280;26722;43.212;27.932;2023-08-20T00:19:55;54892.31;;;-146.72;53.16
40994;BME280;26722;43.212;27.932;2023-08-20T00:22:25;54894.41;;;-146.72;53.77
40994;BME280;26722;43.212;27.932;2023-08-20T00:24:53;54890.19;;;-146.72;54.00
40994;BME280;26722;43.212;27.932;2023-08-20T00:27:20;54890.19;;;-146.72;54.73
40994;BME280;26722;43.212;27.932;2023-08-20T00:29:46;54898.63;;;-146.72;55.08
40994;BME280;26722;43.212;27.932;2023-08-20T00:32:11;54896.53;;;-146.72;55.63
40994;BME280;26722;43.212;27.932;2023-08-20T00:34:37;54902.84;;;-146.72;55.86
40994;BME280;26722;43.212;27.932;2023-08-20T00:37:03;54907.09;;;-146.72;56.39
40994;BME280;26722;43.212;27.932;2023-08-20T00:39:29;54904.97;;;-146.72;56.73
40994;BME280;26722;43.212;27.932;2023-08-20T00:41:55;54904.97;;;-146.72;57.34
40994;BME280;26722;43.212;27.932;2023-08-20T00:44:21;54909.19;;;-146.72;57.75
40994;BME280;26722;43.212;27.932;2023-08-20T00:46:46;54917.63;;;-146.72;58.26
40994;BME280;26722;43.212;27.932;2023-08-20T00:49:12;54913.41;;;-146.72;57.96
40994;BME280;26722;43.212;27.932;2023-08-20T00:51:38;54909.19;;;-146.72;58.47
40994;BME280;26722;43.212;27.932;2023-08-20T00:54:04;54913.41;;;-146.72;58.47
40994;BME280;26722;43.212;27.932;2023-08-20T00:56:30;54907.09;;;-146.72;58.25
40994;BME280;26722;43.212;27.932;2023-08-20T00:58:56;54913.41;;;-146.72;58.07
40994;BME280;26722;43.212;27.932;2023-08-20T01:01:23;54909.19;;;-146.72;57.93
40994;BME280;26722;43.212;27.932;2023-08-20T01:03:48;54917.63;;;-146.72;57.66
40994;BME280;26722;43.212;27.932;2023-08-20T01:08:44;54926.09;;;-146.72;58.05
40994;BME280;26722;43.212;27.932;2023-08-20T01:11:16;54917.63;;;-146.72;58.27
40994;BME280;26722;43.212;27.932;2023-08-20T01:13:43;54919.75;;;-146.72;58.59
40994;BME280;26722;43.212;27.932;2023-08-20T01:16:09;54919.75;;;-146.72;58.60
40994;BME280;26722;43.212;27.932;2023-08-20T01:18:34;54896.53;;;-146.72;58.22
40994;BME280;26722;43.212;27.932;2023-08-20T01:21:04;54904.97;;;-146.72;58.51
40994;BME280;26722;43.212;27.932;2023-08-20T01:28:44;54915.53;;;-146.72;58.55
40994;BME280;26722;43.212;27.932;2023-08-20T01:31:10;54917.63;;;-146.72;58.48
40994;BME280;26722;43.212;27.932;2023-08-20T01:33:36;54909.19;;;-146.72;58.53
40994;BME280;26722;43.212;27.932;2023-08-20T01:36:01;54904.97;;;-146.72;58.94
40994;BME280;26722;43.212;27.932;2023-08-20T01:38:27;54904.97;;;-146.72;58.81
40994;BME280;26722;43.212;27.932;2023-08-20T01:40:52;54913.41;;;-146.72;58.74
40994;BME280;26722;43.212;27.932;2023-08-20T01:43:18;54919.75;;;-146.72;59.18
40994;BME280;26722;43.212;27.932;2023-08-20T01:45:43;54923.97;;;-146.72;59.81
40994;BME280;26722;43.212;27.932;2023-08-20T01:48:09;54909.19;;;-146.72;59.45
40994;BME280;26722;43.212;27.932;2023-08-20T01:50:35;54902.84;;;-146.72;59.76
40994;BME280;26722;43.212;27.932;2023-08-20T01:53:01;54909.19;;;-146.72;59.75
40994;BME280;26722;43.212;27.932;2023-08-20T01:55:28;54909.19;;;-146.72;59.58
40994;BME280;26722;43.212;27.932;2023-08-20T01:57:53;54907.09;;;-146.72;59.53
40994;BME280;26722;43.212;27.932;2023-08-20T02:00:19;54926.09;;;-146.72;59.69
40994;BME280;26722;43.212;27.932;2023-08-20T02:02:44;54915.53;;;-146.72;59.47
40994;BME280;26722;43.212;27.932;2023-08-20T02:05:09;54900.75;;;-146.72;59.32
40994;BME280;26722;43.212;27.932;2023-08-20T02:07:38;54902.84;;;-146.72;59.66
40994;BME280;26722;43.212;27.932;2023-08-20T02:10:04;54913.41;;;-146.72;59.24
40994;BME280;26722;43.212;27.932;2023-08-20T02:12:29;54926.09;;;-146.72;59.54
40994;BME280;26722;43.212;27.932;2023-08-20T02:14:55;54907.09;;;-146.72;59.43
40994;BME280;26722;43.212;27.932;2023-08-20T02:17:20;54904.97;;;-146.72;61.00
40994;BME280;26722;43.212;27.932;2023-08-20T02:19:46;54923.97;;;-146.72;61.37
40994;BME280;26722;43.212;27.932;2023-08-20T02:22:12;54913.41;;;-146.72;61.78
40994;BME280;26722;43.212;27.932;2023-08-20T02:24:37;54921.88;;;-146.72;62.28
40994;BME280;26722;43.212;27.932;2023-08-20T02:27:03;54913.41;;;-146.72;62.36
40994;BME280;26722;43.212;27.932;2023-08-20T02:29:29;54917.63;;;-146.72;62.58
40994;BME280;26722;43.212;27.932;2023-08-20T02:31:54;54911.31;;;-146.72;62.82
40994;BME280;26722;43.212;27.932;2023-08-20T02:34:19;54926.09;;;-146.72;63.68
40994;BME280;26722;43.212;27.932;2023-08-20T02:36:45;54921.88;;;-146.72;64.04
40994;BME280;26722;43.212;27.932;2023-08-20T02:39:10;54913.41;;;-146.72;63.83
40994;BME280;26722;43.212;27.932;2023-08-20T02:41:36;54919.75;;;-146.72;63.52
40994;BME280;26722;43.212;27.932;2023-08-20T02:44:02;54904.97;;;-146.72;62.61
40994;BME280;26722;43.212;27.932;2023-08-20T02:46:29;54919.75;;;-146.72;62.26
40994;BME280;26722;43.212;27.932;2023-08-20T02:48:54;54909.19;;;-146.72;62.44
40994;BME280;26722;43.212;27.932;2023-08-20T02:51:20;54921.88;;;-146.72;61.67
40994;BME280;26722;43.212;27.932;2023-08-20T02:53:45;54900.75;;;-146.72;61.84
40994;BME280;26722;43.212;27.932;2023-08-20T02:56:11;54913.41;;;-146.72;61.17
40994;BME280;26722;43.212;27.932;2023-08-20T02:58:36;54917.63;;;-146.72;61.22
40994;BME280;26722;43.212;27.932;2023-08-20T03:01:02;54923.97;;;-146.72;61.02
40994;BME280;26722;43.212;27.932;2023-08-20T03:03:28;54917.63;;;-146.72;60.33
40994;BME280;26722;43.212;27.932;2023-08-20T03:05:53;54909.19;;;-146.72;60.29
40994;BME280;26722;43.212;27.932;2023-08-20T03:08:19;54926.09;;;-146.72;60.22
40994;BME280;26722;43.212;27.932;2023-08-20T03:10:44;54915.53;;;-146.72;60.19
40994;BME280;26722;43.212;27.932;2023-08-20T03:13:10;54915.53;;;-146.72;60.82
40994;BME280;26722;43.212;27.932;2023-08-20T03:15:35;54917.63;;;-146.72;62.08
40994;BME280;26722;43.212;27.932;2023-08-20T03:18:01;54915.53;;;-146.72;62.82
40994;BME280;26722;43.212;27.932;2023-08-20T03:20:26;54917.63;;;-146.72;63.04
40994;BME280;26722;43.212;27.932;2023-08-20T03:22:53;54923.97;;;-146.72;63.47
40994;BME280;26722;43.212;27.932;2023-08-20T03:25:19;54923.97;;;-146.72;63.33
40994;BME280;26722;43.212;27.932;2023-08-20T03:27:45;54921.88;;;-146.72;64.83
40994;BME280;26722;43.212;27.932;2023-08-20T03:30:10;54921.88;;;-146.72;65.57
40994;BME280;26722;43.212;27.932;2023-08-20T03:32:36;54930.31;;;-146.72;66.41
40994;BME280;26722;43.212;27.932;2023-08-20T03:35:01;54930.31;;;-146.72;66.97
40994;BME280;26722;43.212;27.932;2023-08-20T03:37:28;54930.31;;;-146.72;67.46
40994;BME280;26722;43.212;27.932;2023-08-20T03:39:53;54934.53;;;-146.72;66.91
40994;BME280;26722;43.212;27.932;2023-08-20T03:42:19;54928.19;;;-146.72;66.54
40994;BME280;26722;43.212;27.932;2023-08-20T03:44:44;54942.97;;;-146.72;66.31
40994;BME280;26722;43.212;27.932;2023-08-20T03:47:10;54934.53;;;-146.72;66.22
40994;BME280;26722;43.212;27.932;2023-08-20T03:49:36;54917.63;;;-146.72;65.83
40994;BME280;26722;43.212;27.932;2023-08-20T03:52:01;54934.53;;;-146.72;65.42
40994;BME280;26722;43.212;27.932;2023-08-20T03:54:30;54926.09;;;-146.72;65.02
40994;BME280;26722;43.212;27.932;2023-08-20T03:56:55;54921.88;;;-146.72;65.96
40994;BME280;26722;43.212;27.932;2023-08-20T03:59:21;54930.31;;;-146.72;65.80
40994;BME280;26722;43.212;27.932;2023-08-20T04:01:47;54917.63;;;-146.72;65.09
40994;BME280;26722;43.212;27.932;2023-08-20T04:04:13;54928.19;;;-146.72;64.37
40994;BME280;26722;43.212;27.932;2023-08-20T04:06:38;54909.19;;;-146.72;63.52
40994;BME280;26722;43.212;27.932;2023-08-20T04:09:04;54907.09;;;-146.72;62.25
40994;BME280;26722;43.212;27.932;2023-08-20T04:11:31;54898.63;;;-146.72;60.98
40994;BME280;26722;43.212;27.932;2023-08-20T04:13:56;54888.09;;;-146.72;60.04
40994;BME280;26722;43.212;27.932;2023-08-20T04:16:21;54890.19;;;-146.72;59.57
40994;BME280;26722;43.212;27.932;2023-08-20T04:18:47;54885.97;;;-146.72;58.61
40994;BME280;26722;43.212;27.932;2023-08-20T04:21:13;54871.19;;;-146.72;56.82
40994;BME280;26722;43.212;27.932;2023-08-20T04:23:38;54883.84;;;-146.72;55.93
40994;BME280;26722;43.212;27.932;2023-08-20T04:26:04;54877.53;;;-146.72;54.84
40994;BME280;26722;43.212;27.932;2023-08-20T04:28:30;54877.53;;;-146.72;55.21
40994;BME280;26722;43.212;27.932;2023-08-20T04:30:55;54888.09;;;-146.72;55.87
40994;BME280;26722;43.212;27.932;2023-08-20T04:33:21;54881.75;;;-146.72;56.11
40994;BME280;26722;43.212;27.932;2023-08-20T04:35:48;54890.19;;;-146.72;56.63
40994;BME280;26722;43.212;27.932;2023-08-20T04:38:16;54888.09;;;-146.72;57.40
40994;BME280;26722;43.212;27.932;2023-08-20T04:40:41;54900.75;;;-146.72;57.59
40994;BME280;26722;43.212;27.932;2023-08-20T04:43:06;54892.31;;;-146.72;55.67
40994;BME280;26722;43.212;27.932;2023-08-20T04:45:32;54904.97;;;-146.72;56.31
40994;BME280;26722;43.212;27.932;2023-08-20T04:47:57;54904.97;;;-146.72;56.48
40994;BME280;26722;43.212;27.932;2023-08-20T04:50:23;54892.31;;;-146.72;56.66
40994;BME280;26722;43.212;27.932;2023-08-20T04:52:49;54879.63;;;-146.72;56.63
40994;BME280;26722;43.212;27.932;2023-08-20T04:55:14;54881.75;;;-146.72;56.23
40994;BME280;26722;43.212;27.932;2023-08-20T04:57:41;54896.53;;;-146.72;55.18
40994;BME280;26722;43.212;27.932;2023-08-20T05:00:07;54885.97;;;-146.72;54.89
40994;BME280;26722;43.212;27.932;2023-08-20T05:02:32;54875.41;;;-146.72;54.58
40994;BME280;26722;43.212;27.932;2023-08-20T05:04:58;54864.88;;;-146.72;53.11
40994;BME280;26722;43.212;27.932;2023-08-20T05:07:23;54879.63;;;-146.72;52.57
40994;BME280;26722;43.212;27.932;2023-08-20T05:09:49;54871.19;;;-146.72;52.02
40994;BME280;26722;43.212;27.932;2023-08-20T05:12:15;54858.53;;;-146.72;50.88
40994;BME280;26722;43.212;27.932;2023-08-20T05:14:40;54860.63;;;-146.72;50.07
40994;BME280;26722;43.212;27.932;2023-08-20T05:17:06;54858.53;;;-146.72;49.97
40994;BME280;26722;43.212;27.932;2023-08-20T05:19:31;54866.97;;;-146.72;49.15
40994;BME280;26722;43.212;27.932;2023-08-20T05:21:57;54862.75;;;-146.72;50.00
40994;BME280;26722;43.212;27.932;2023-08-20T05:24:24;54860.63;;;-146.72;49.41
40994;BME280;26722;43.212;27.932;2023-08-20T05:29:31;54860.63;;;-146.72;48.43
40994;BME280;26722;43.212;27.932;2023-08-20T05:31:57;54845.88;;;-146.72;48.02
40994;BME280;26722;43.212;27.932;2023-08-20T05:34:22;54858.53;;;-146.72;47.90
40994;BME280;26722;43.212;27.932;2023-08-20T05:36:48;54860.63;;;-146.72;47.82
40994;BME280;26722;43.212;27.932;2023-08-20T05:39:13;54875.41;;;-146.72;47.71
40994;BME280;26722;43.212;27.932;2023-08-20T05:41:38;54847.97;;;-146.72;47.21
40994;BME280;26722;43.212;27.932;2023-08-20T05:44:04;54847.97;;;-146.72;46.79
40994;BME280;26722;43.212;27.932;2023-08-20T05:46:30;54854.31;;;-146.72;46.38
40994;BME280;26722;43.212;27.932;2023-08-20T05:48:55;54837.41;;;-146.72;46.34
40994;BME280;26722;43.212;27.932;2023-08-20T05:51:21;54843.75;;;-146.72;45.96
40994;BME280;26722;43.212;27.932;2023-08-20T05:53:46;54845.88;;;-146.72;45.67
40994;BME280;26722;43.212;27.932;2023-08-20T05:56:11;54839.53;;;-146.72;45.53
40994;BME280;26722;43.212;27.932;2023-08-20T05:58:37;54845.88;;;-146.72;45.03
40994;BME280;26722;43.212;27.932;2023-08-20T06:01:03;54845.88;;;-146.72;45.10
40994;BME280;26722;43.212;27.932;2023-08-20T06:03:28;54833.19;;;-146.72;44.70
40994;BME280;26722;43.212;27.932;2023-08-20T06:05:53;54841.63;;;-146.72;44.43
40994;BME280;26722;43.212;27.932;2023-08-20T06:08:19;54831.09;;;-146.72;43.87
40994;BME280;26722;43.212;27.932;2023-08-20T06:10:44;54833.19;;;-146.72;43.45
40994;BME280;26722;43.212;27.932;2023-08-20T06:13:10;54841.63;;;-146.72;43.17
40994;BME280;26722;43.212;27.932;2023-08-20T06:15:35;54835.31;;;-146.72;42.33
40994;BME280;26722;43.212;27.932;2023-08-20T06:18:01;54828.97;;;-146.72;42.04
40994;BME280;26722;43.212;27.932;2023-08-20T06:20:26;54822.63;;;-146.72;41.71
40994;BME280;26722;43.212;27.932;2023-08-20T06:22:52;54816.31;;;-146.72;41.04
40994;BME280;26722;43.212;27.932;2023-08-20T06:25:17;54828.97;;;-146.72;40.92
40994;BME280;26722;43.212;27.932;2023-08-20T06:27:43;54831.09;;;-146.72;40.79
40994;BME280;26722;43.212;27.932;2023-08-20T06:30:09;54826.88;;;-146.72;39.88
40994;BME280;26722;43.212;27.932;2023-08-20T06:32:35;54824.75;;;-146.72;40.26
40994;BME280;26722;43.212;27.932;2023-08-20T06:35:01;54820.53;;;-146.72;40.23
40994;BME280;26722;43.212;27.932;2023-08-20T06:37:26;54818.41;;;-146.72;40.15
40994;BME280;26722;43.212;27.932;2023-08-20T06:39:51;54824.75;;;-146.72;40.14
40994;BME280;26722;43.212;27.932;2023-08-20T06:42:17;54824.75;;;-146.72;39.89
40994;BME280;26722;43.212;27.932;2023-08-20T06:44:42;54807.88;;;-146.72;39.16
40994;BME280;26722;43.212;27.932;2023-08-20T06:47:08;54807.88;;;-146.72;38.85
40994;BME280;26722;43.212;27.932;2023-08-20T06:49:33;54816.31;;;-146.72;38.45
40994;BME280;26722;43.212;27.932;2023-08-20T06:51:59;54816.31;;;-146.72;38.19
40994;BME280;26722;43.212;27.932;2023-08-20T06:54:24;54809.97;;;-146.72;37.76
40994;BME280;26722;43.212;27.932;2023-08-20T06:56:50;54799.41;;;-146.72;37.17
40994;BME280;26722;43.212;27.932;2023-08-20T06:59:15;54797.31;;;-146.72;36.94
40994;BME280;26722;43.212;27.932;2023-08-20T07:01:41;54795.19;;;-146.72;36.18
40994;BME280;26722;43.212;27.932;2023-08-20T07:04:07;54799.41;;;-146.72;36.28
40994;BME280;26722;43.212;27.932;2023-08-20T07:06:32;54790.97;;;-146.72;36.31
40994;BME280;26722;43.212;27.932;2023-08-20T07:08:58;54790.97;;;-146.72;35.45
40994;BME280;26722;43.212;27.932;2023-08-20T07:11:23;54788.88;;;-146.72;35.39
40994;BME280;26722;43.212;27.932;2023-08-20T07:13:49;54795.19;;;-146.72;35.35
40994;BME280;26722;43.212;27.932;2023-08-20T07:16:14;54795.19;;;-146.72;35.21
40994;BME280;26722;43.212;27.932;2023-08-20T07:18:40;54782.53;;;-146.72;34.98
40994;BME280;26722;43.212;27.932;2023-08-20T07:21:05;54780.41;;;-146.72;34.94
40994;BME280;26722;43.212;27.932;2023-08-20T07:23:33;54782.53;;;-146.72;34.81
40994;BME280;26722;43.212;27.932;2023-08-20T07:26:09;54776.19;;;-146.72;34.16
40994;BME280;26722;43.212;27.932;2023-08-20T07:28:35;54786.75;;;-146.72;34.35
40994;BME280;26722;43.212;27.932;2023-08-20T07:31:20;54778.31;;;-146.72;33.86
40994;BME280;26722;43.212;27.932;2023-08-20T07:33:47;54778.31;;;-146.72;33.68
40994;BME280;26722;43.212;27.932;2023-08-20T07:36:13;54780.41;;;-146.72;33.54
40994;BME280;26722;43.212;27.932;2023-08-20T07:38:40;54774.09;;;-146.72;33.61
40994;BME280;26722;43.212;27.932;2023-08-20T07:41:08;54780.41;;;-146.72;33.50
40994;BME280;26722;43.212;27.932;2023-08-20T07:43:33;54784.63;;;-146.72;33.18
40994;BME280;26722;43.212;27.932;2023-08-20T07:45:59;54782.53;;;-146.72;33.50
40994;BME280;26722;43.212;27.932;2023-08-20T07:48:24;54782.53;;;-146.72;33.42
40994;BME280;26722;43.212;27.932;2023-08-20T07:50:50;54784.63;;;-146.72;33.67
40994;BME280;26722;43.212;27.932;2023-08-20T07:53:15;54786.75;;;-146.72;33.36
40994;BME280;26722;43.212;27.932;2023-08-20T07:55:41;54774.09;;;-146.72;33.27
40994;BME280;26722;43.212;27.932;2023-08-20T07:58:06;54774.09;;;-146.72;33.12
40994;BME280;26722;43.212;27.932;2023-08-20T08:00:32;54769.88;;;-146.72;33.24
40994;BME280;26722;43.212;27.932;2023-08-20T08:02:57;54774.09;;;-146.72;33.48
40994;BME280;26722;43.212;27.932;2023-08-20T08:05:23;54769.88;;;-146.72;33.81
40994;BME280;26722;43.212;27.932;2023-08-20T08:07:48;54774.09;;;-146.72;33.77
40994;BME280;26722;43.212;27.932;2023-08-20T08:10:14;54763.53;;;-146.72;34.02
40994;BME280;26722;43.212;27.932;2023-08-20T08:12:39;54774.09;;;-146.72;33.36
40994;BME280;26722;43.212;27.932;2023-08-20T08:15:05;54774.09;;;-146.72;32.99
40994;BME280;26722;43.212;27.932;2023-08-20T08:17:30;54778.31;;;-146.72;33.59
40994;BME280;26722;43.212;27.932;2023-08-20T08:19:56;54763.53;;;-146.72;33.44
40994;BME280;26722;43.212;27.932;2023-08-20T08:22:23;54769.88;;;-146.72;33.13
40994;BME280;26722;43.212;27.932;2023-08-20T08:24:48;54759.31;;;-146.72;33.02
40994;BME280;26722;43.212;27.932;2023-08-20T08:27:14;54769.88;;;-146.72;33.21
40994;BME280;26722;43.212;27.932;2023-08-20T08:29:39;54759.31;;;-146.72;33.02
40994;BME280;26722;43.212;27.932;2023-08-20T08:32:05;54767.75;;;-146.72;33.05
40994;BME280;26722;43.212;27.932;2023-08-20T08:34:30;54763.53;;;-146.72;33.11
40994;BME280;26722;43.212;27.932;2023-08-20T08:36:56;54757.19;;;-146.72;32.49
40994;BME280;26722;43.212;27.932;2023-08-20T08:39:21;54763.53;;;-146.72;32.26
40994;BME280;26722;43.212;27.932;2023-08-20T08:41:49;54748.75;;;-146.72;31.90
40994;BME280;26722;43.212;27.932;2023-08-20T08:44:16;54746.63;;;-146.72;31.64
40994;BME280;26722;43.212;27.932;2023-08-20T08:46:42;54746.63;;;-146.72;31.72
40994;BME280;26722;43.212;27.932;2023-08-20T08:49:08;54750.88;;;-146.72;31.38
40994;BME280;26722;43.212;27.932;2023-08-20T08:51:35;54757.19;;;-146.72;31.24
40994;BME280;26722;43.212;27.932;2023-08-20T08:54:02;54757.19;;;-146.72;31.34
40994;BME280;26722;43.212;27.932;2023-08-20T08:56:28;54748.75;;;-146.72;30.85
40994;BME280;26722;43.212;27.932;2023-08-20T08:58:54;54755.09;;;-146.72;31.14
40994;BME280;26722;43.212;27.932;2023-08-20T09:01:19;54767.75;;;-146.72;30.78
40994;BME280;26722;43.212;27.932;2023-08-20T09:03:45;54757.19;;;-146.72;30.66
40994;BME280;26722;43.212;27.932;2023-08-20T09:06:11;54759.31;;;-146.72;30.07
40994;BME280;26722;43.212;27.932;2023-08-20T09:08:36;54752.97;;;-146.72;30.22
40994;BME280;26722;43.212;27.932;2023-08-20T09:11:02;54755.09;;;-146.72;32.20
40994;BME280;26722;43.212;27.932;2023-08-20T09:13:35;54748.75;;;-146.72;34.86
40994;BME280;26722;43.212;27.932;2023-08-20T09:16:06;54757.19;;;-146.72;36.67
40994;BME280;26722;43.212;27.932;2023-08-20T09:18:33;54757.19;;;-146.72;37.65
40994;BME280;26722;43.212;27.932;2023-08-20T09:21:06;54761.41;;;-146.72;39.29
40994;BME280;26722;43.212;27.932;2023-08-20T09:23:32;54752.97;;;-146.72;40.01
40994;BME280;26722;43.212;27.932;2023-08-20T09:26:02;54757.19;;;-146.72;42.42
40994;BME280;26722;43.212;27.932;2023-08-20T09:28:30;54765.63;;;-146.72;43.27
40994;BME280;26722;43.212;27.932;2023-08-20T09:31:05;54774.09;;;-146.72;45.02
40994;BME280;26722;43.212;27.932;2023-08-20T09:33:30;54771.97;;;-146.72;40.99
40994;BME280;26722;43.212;27.932;2023-08-20T09:35:56;54769.88;;;-146.72;43.13
40994;BME280;26722;43.212;27.932;2023-08-20T09:38:23;54763.53;;;-146.72;43.22
40994;BME280;26722;43.212;27.932;2023-08-20T09:40:52;54778.31;;;-146.72;41.06
40994;BME280;26722;43.212;27.932;2023-08-20T09:43:18;54782.53;;;-146.72;41.57
40994;BME280;26722;43.212;27.932;2023-08-20T09:45:46;54761.41;;;-146.72;40.11
40994;BME280;26722;43.212;27.932;2023-08-20T09:48:18;54761.41;;;-146.72;38.63
40994;BME280;26722;43.212;27.932;2023-08-20T09:50:47;54765.63;;;-146.72;36.70
40994;BME280;26722;43.212;27.932;2023-08-20T09:53:26;54763.53;;;-146.72;38.28
40994;BME280;26722;43.212;27.932;2023-08-20T09:55:52;54761.41;;;-146.72;39.25
40994;BME280;26722;43.212;27.932;2023-08-20T09:58:21;54769.88;;;-146.72;38.08
40994;BME280;26722;43.212;27.932;2023-08-20T10:00:51;54771.97;;;-146.72;37.12
40994;BME280;26722;43.212;27.932;2023-08-20T10:03:18;54778.31;;;-146.72;38.33
40994;BME280;26722;43.212;27.932;2023-08-20T10:05:46;54774.09;;;-146.72;39.32
40994;BME280;26722;43.212;27.932;2023-08-20T10:08:12;54765.63;;;-146.72;42.43
40994;BME280;26722;43.212;27.932;2023-08-20T10:10:38;54774.09;;;-146.72;45.01
40994;BME280;26722;43.212;27.932;2023-08-20T10:13:04;54761.41;;;-146.72;42.14
40994;BME280;26722;43.212;27.932;2023-08-20T10:15:29;54767.75;;;-146.72;43.61
40994;BME280;26722;43.212;27.932;2023-08-20T10:17:57;54780.41;;;-146.72;45.71
40994;BME280;26722;43.212;27.932;2023-08-20T10:20:23;54778.31;;;-146.72;46.84
40994;BME280;26722;43.212;27.932;2023-08-20T10:22:50;54790.97;;;-146.72;49.94
40994;BME280;26722;43.212;27.932;2023-08-20T10:25:24;54782.53;;;-146.72;49.37
40994;BME280;26722;43.212;27.932;2023-08-20T10:27:50;54790.97;;;-146.72;46.86
40994;BME280;26722;43.212;27.932;2023-08-20T10:30:18;54793.09;;;-146.72;45.93
40994;BME280;26722;43.212;27.932;2023-08-20T10:32:48;54782.53;;;-146.72;43.88
40994;BME280;26722;43.212;27.932;2023-08-20T10:35:29;54780.41;;;-146.72;39.05
40994;BME280;26722;43.212;27.932;2023-08-20T10:38:15;54786.75;;;-146.72;37.40
40994;BME280;26722;43.212;27.932;2023-08-20T10:40:54;54774.09;;;-146.72;40.82
40994;BME280;26722;43.212;27.932;2023-08-20T10:43:48;54793.09;;;-146.72;39.99
40994;BME280;26722;43.212;27.932;2023-08-20T10:46:22;54774.09;;;-146.72;40.34
40994;BME280;26722;43.212;27.932;2023-08-20T10:48:56;54790.97;;;-146.72;37.15
40994;BME280;26722;43.212;27.932;2023-08-20T10:51:29;54776.19;;;-146.72;34.87
40994;BME280;26722;43.212;27.932;2023-08-20T10:59:30;54765.63;;;-146.72;33.12
40994;BME280;26722;43.212;27.932;2023-08-20T11:01:59;54767.75;;;-146.72;33.03
40994;BME280;26722;43.212;27.932;2023-08-20T11:04:28;54774.09;;;-146.72;33.89
40994;BME280;26722;43.212;27.932;2023-08-20T11:06:57;54771.97;;;-146.72;39.94
40994;BME280;26722;43.212;27.932;2023-08-20T11:09:27;54771.97;;;-146.72;40.26
40994;BME280;26722;43.212;27.932;2023-08-20T11:11:54;54774.09;;;-146.72;40.98
40994;BME280;26722;43.212;27.932;2023-08-20T11:14:20;54778.31;;;-146.72;41.99
40994;BME280;26722;43.212;27.932;2023-08-20T11:16:47;54774.09;;;-146.72;42.67
40994;BME280;26722;43.212;27.932;2023-08-20T11:19:14;54780.41;;;-146.72;43.66
40994;BME280;26722;43.212;27.932;2023-08-20T11:21:42;54786.75;;;-146.72;43.50
40994;BME280;26722;43.212;27.932;2023-08-20T11:24:08;54784.63;;;-146.72;44.10
40994;BME280;26722;43.212;27.932;2023-08-20T11:26:35;54778.31;;;-146.72;43.50
40994;BME280;26722;43.212;27.932;2023-08-20T11:29:05;54784.63;;;-146.72;43.09
40994;BME280;26722;43.212;27.932;2023-08-20T11:31:30;54786.75;;;-146.72;42.80
40994;BME280;26722;43.212;27.932;2023-08-20T11:33:57;54790.97;;;-146.72;42.16
40994;BME280;26722;43.212;27.932;2023-08-20T11:36:22;54786.75;;;-146.72;41.54
40994;BME280;26722;43.212;27.932;2023-08-20T11:38:52;54793.09;;;-146.72;40.40
40994;BME280;26722;43.212;27.932;2023-08-20T11:41:19;54788.88;;;-146.72;39.24
40994;BME280;26722;43.212;27.932;2023-08-20T11:43:45;54782.53;;;-146.72;37.69
40994;BME280;26722;43.212;27.932;2023-08-20T11:46:19;54786.75;;;-146.72;38.09
40994;BME280;26722;43.212;27.932;2023-08-20T11:51:29;54782.53;;;-146.72;37.66
40994;BME280;26722;43.212;27.932;2023-08-20T11:53:56;54776.19;;;-146.72;37.55
40994;BME280;26722;43.212;27.932;2023-08-20T11:56:22;54774.09;;;-146.72;37.82
40994;BME280;26722;43.212;27.932;2023-08-20T11:58:51;54782.53;;;-146.72;37.08
40994;BME280;26722;43.212;27.932;2023-08-20T12:01:20;54774.09;;;-146.72;36.74
40994;BME280;26722;43.212;27.932;2023-08-20T12:03:45;54786.75;;;-146.72;37.10
40994;BME280;26722;43.212;27.932;2023-08-20T12:06:21;54784.63;;;-146.72;36.97
40994;BME280;26722;43.212;27.932;2023-08-20T12:08:48;54782.53;;;-146.72;37.31
40994;BME280;26722;43.212;27.932;2023-08-20T12:11:13;54776.19;;;-146.72;37.42
40994;BME280;26722;43.212;27.932;2023-08-20T12:13:39;54782.53;;;-146.72;37.72
40994;BME280;26722;43.212;27.932;2023-08-20T12:16:04;54790.97;;;-146.72;37.30
40994;BME280;26722;43.212;27.932;2023-08-20T12:18:30;54778.31;;;-146.72;36.76
40994;BME280;26722;43.212;27.932;2023-08-20T12:20:56;54778.31;;;-146.72;37.69
40994;BME280;26722;43.212;27.932;2023-08-20T12:23:21;54780.41;;;-146.72;37.70
40994;BME280;26722;43.212;27.932;2023-08-20T12:25:50;54778.31;;;-146.72;38.07
40994;BME280;26722;43.212;27.932;2023-08-20T12:28:16;54774.09;;;-146.72;39.42
40994;BME280;26722;43.212;27.932;2023-08-20T12:30:43;54767.75;;;-146.72;39.24
40994;BME280;26722;43.212;27.932;2023-08-20T12:33:08;54769.88;;;-146.72;39.53
40994;BME280;26722;43.212;27.932;2023-08-20T12:35:34;54784.63;;;-146.72;39.99
40994;BME280;26722;43.212;27.932;2023-08-20T12:38:00;54778.31;;;-146.72;40.16
40994;BME280;26722;43.212;27.932;2023-08-20T12:40:25;54782.53;;;-146.72;40.39
40994;BME280;26722;43.212;27.932;2023-08-20T12:42:51;54780.41;;;-146.72;40.34
40994;BME280;26722;43.212;27.932;2023-08-20T12:45:16;54776.19;;;-146.72;40.46